KBKE/BKE METAR and TAF weather

Enter ICAO airport designator
Station Type Date Time Source
KBKE METAR 2022/08/16 18:53 UTC NOAA

KBKE 161853Z AUTO 27007KT 10SM CLR 29/07 A3008 RMK AO2 SLP157 T02940072 $


Station Type Date Time Source
KBKE Decoded METAR 2022/08/16 18:53 UTC NOAA

BAKER MUNICIPAL AIRPORT, OR, United States (KBKE) 44-50N 117-49W 1024M
Aug 16, 2022 - 02:53 PM EDT / 2022.08.16 1853 UTC
Wind: from the W (270 degrees) at 8 MPH (7 KT):0
Visibility: 10 mile(s):0
Sky conditions: clear
Temperature: 84.9 F (29.4 C)
Dew Point: 45.0 F (7.2 C)
Relative Humidity: 24%
Pressure (altimeter): 30.08 in. Hg (1018 hPa)
ob: KBKE 161853Z AUTO 27007KT 10SM CLR 29/07 A3008 RMK AO2 SLP157 T02940072
cycle: 19

Station Type Date Time Source
KBKE TAF 2022/08/16 18:24 UTC NOAA

TAF KBKE 161721Z 1618/1718 VRB05KT P6SM SKC
FM162000 31008KT P6SM SKC
FM170300 VRB05KT P6SM SKC

Example: see airport list